Time;durP1;ratioP1;P1;durP2;ratioP2;P2;SDS_P1;SDS_P2;PMS_P1;PMS_P2;Temp;Humidity;BMP_temperature;BMP_pressure;BME280_temperature;BME280_humidity;BME280_pressure;Samples;Min_cycle;Max_cycle;Signal;HPM_P1;HPM_P2
2023/09/21 00:01:23;;;;;;;3.50;2.50;;;20.20;94.40;;;;;;10496583;28;20393;-66
2023/09/21 00:06:24;;;;;;;3.83;2.47;;;20.20;94.40;;;;;;10495528;28;20562;-68
2023/09/21 00:11:25;;;;;;;4.17;2.50;;;20.20;94.30;;;;;;10501571;28;20392;-68
2023/09/21 00:16:27;;;;;;;3.22;2.40;;;20.20;94.30;;;;;;10500036;28;20889;-68
2023/09/21 00:21:31;;;;;;;3.30;2.50;;;20.20;94.30;;;;;;10495530;28;20401;-69
2023/09/21 00:26:34;;;;;;;3.63;2.55;;;20.20;94.30;;;;;;10496029;28;20777;-66
2023/09/21 00:31:35;;;;;;;4.07;2.60;;;20.20;94.20;;;;;;10496906;28;20400;-68
2023/09/21 00:36:35;;;;;;;3.00;2.37;;;20.20;94.30;;;;;;10502424;28;20440;-69
2023/09/21 00:41:36;;;;;;;4.00;2.60;;;20.20;94.30;;;;;;10502820;28;20401;-68
2023/09/21 00:46:38;;;;;;;3.47;2.30;;;20.10;94.20;;;;;;10501099;28;20424;-68
2023/09/21 00:51:39;;;;;;;3.63;2.47;;;20.10;94.20;;;;;;10504241;28;20406;-68
2023/09/21 00:56:41;;;;;;;3.78;2.50;;;20.10;94.30;;;;;;10493882;28;20795;-67
2023/09/21 01:01:41;;;;;;;3.45;2.58;;;20.10;94.20;;;;;;10501005;28;20394;-67
2023/09/21 01:06:45;;;;;;;3.38;2.35;;;20.10;94.20;;;;;;10505412;28;21077;-68
2023/09/21 01:11:46;;;;;;;3.90;2.63;;;20.10;94.20;;;;;;10501803;28;21182;-68
2023/09/21 01:16:47;;;;;;;5.10;2.50;;;20.10;94.10;;;;;;10498679;28;20403;-66
2023/09/21 01:21:51;;;;;;;3.33;2.60;;;20.10;94.10;;;;;;10498613;28;20494;-68
2023/09/21 01:26:51;;;;;;;3.20;2.30;;;20.10;94.10;;;;;;10492255;28;20407;-68
2023/09/21 01:31:53;;;;;;;4.03;2.67;;;20.10;94.10;;;;;;10497491;28;20457;-68
2023/09/21 01:36:55;;;;;;;3.13;2.22;;;20.10;94.10;;;;;;10499956;28;20409;-67
2023/09/21 01:41:56;;;;;;;4.63;2.50;;;20.10;94.20;;;;;;10503760;28;20746;-68
2023/09/21 01:46:57;;;;;;;3.80;2.33;;;20.10;94.10;;;;;;10507522;28;20403;-68
2023/09/21 01:51:57;;;;;;;2.70;2.17;;;20.10;94.10;;;;;;10500776;28;20768;-68
2023/09/21 01:56:59;;;;;;;3.95;2.55;;;20.10;94.00;;;;;;10503727;28;20725;-67
2023/09/21 02:02:03;;;;;;;3.20;2.50;;;20.10;94.10;;;;;;10494253;28;20409;-67
2023/09/21 02:07:03;;;;;;;3.65;2.58;;;20.10;94.10;;;;;;10503186;28;20409;-68
2023/09/21 02:12:04;;;;;;;4.40;2.40;;;20.00;94.10;;;;;;10502705;28;20382;-68
2023/09/21 02:17:05;;;;;;;3.33;2.60;;;20.00;94.00;;;;;;10503079;28;20888;-67
2023/09/21 02:22:07;;;;;;;3.57;2.40;;;20.00;94.00;;;;;;10509506;28;20402;-68
2023/09/21 02:27:08;;;;;;;4.30;2.50;;;20.60;94.20;;;;;;10493924;28;20397;-67
2023/09/21 02:32:10;;;;;;;3.90;2.60;;;20.00;94.10;;;;;;10510074;28;20396;-67
2023/09/21 02:37:11;;;;;;;3.90;2.42;;;20.00;94.00;;;;;;10505341;28;20917;-67
2023/09/21 02:42:17;;;;;;;4.00;2.50;;;20.00;94.00;;;;;;10498453;28;20406;-68
2023/09/21 02:47:19;;;;;;;3.38;2.53;;;20.00;94.10;;;;;;10511092;28;20402;-67
2023/09/21 02:52:21;;;;;;;3.50;2.50;;;20.00;94.10;;;;;;10497263;28;20408;-66
2023/09/21 02:57:22;;;;;;;3.67;2.60;;;20.00;94.10;;;;;;10500612;28;20408;-67
2023/09/21 03:02:23;;;;;;;3.75;2.47;;;20.00;94.10;;;;;;10506078;28;20409;-67
2023/09/21 03:07:23;;;;;;;3.72;2.53;;;20.00;94.10;;;;;;10497693;28;20405;-68
2023/09/21 03:12:24;;;;;;;3.70;2.50;;;20.00;94.10;;;;;;10508453;28;20398;-68
2023/09/21 03:17:25;;;;;;;3.47;2.60;;;19.90;94.10;;;;;;10505030;28;20386;-68
2023/09/21 03:22:26;;;;;;;3.27;2.60;;;20.10;94.10;;;;;;10502638;28;20492;-66
2023/09/21 03:27:27;;;;;;;2.85;2.40;;;20.00;94.10;;;;;;10496599;28;20902;-68
2023/09/21 03:32:29;;;;;;;3.90;2.60;;;20.10;94.10;;;;;;10501459;28;20394;-68
2023/09/21 03:37:31;;;;;;;3.95;2.95;;;19.90;94.10;;;;;;10502709;28;20505;-67
2023/09/21 03:42:32;;;;;;;3.87;2.73;;;20.00;94.10;;;;;;10503200;28;20436;-68
2023/09/21 03:47:33;;;;;;;3.97;2.60;;;20.00;94.10;;;;;;10503291;28;20394;-68
2023/09/21 03:52:36;;;;;;;3.13;2.45;;;20.00;94.10;;;;;;10516994;28;20406;-67
2023/09/21 03:57:40;;;;;;;4.00;2.75;;;20.00;94.10;;;;;;10498162;28;20413;-68
2023/09/21 04:02:41;;;;;;;3.63;2.70;;;19.90;94.10;;;;;;10498615;28;20409;-66
2023/09/21 04:07:42;;;;;;;3.50;2.58;;;19.90;94.10;;;;;;10496774;28;20390;-68
2023/09/21 04:12:44;;;;;;;3.58;2.70;;;19.90;94.10;;;;;;10496782;28;20432;-68
2023/09/21 04:17:45;;;;;;;3.42;2.60;;;20.00;94.10;;;;;;10500329;28;20398;-68
2023/09/21 04:22:47;;;;;;;3.50;2.75;;;20.00;94.10;;;;;;10494197;28;20496;-68
2023/09/21 04:27:49;;;;;;;5.45;2.70;;;19.90;94.10;;;;;;10490676;28;20937;-68
2023/09/21 04:32:51;;;;;;;3.15;2.40;;;19.90;94.10;;;;;;10495455;28;20907;-68
2023/09/21 04:37:52;;;;;;;3.80;3.00;;;20.00;94.10;;;;;;10492960;28;20393;-67
2023/09/21 04:42:53;;;;;;;4.45;2.88;;;19.90;94.10;;;;;;10496959;28;20398;-67
2023/09/21 04:48:00;;;;;;;3.22;2.60;;;19.90;94.10;;;;;;10495213;28;20413;-67
2023/09/21 04:53:01;;;;;;;3.80;2.50;;;19.90;94.10;;;;;;10488895;28;20408;-67
2023/09/21 04:58:01;;;;;;;3.90;2.90;;;19.90;94.10;;;;;;10495931;28;20409;-68
2023/09/21 05:03:03;;;;;;;3.77;2.90;;;18.90;93.80;;;;;;10496358;28;20936;-68
2023/09/21 05:08:04;;;;;;;5.10;3.13;;;19.90;94.10;;;;;;10493133;28;20400;-67
2023/09/21 05:13:05;;;;;;;3.80;3.10;;;19.90;94.10;;;;;;10504249;28;20405;-67
2023/09/21 05:18:07;;;;;;;3.30;2.80;;;19.90;94.10;;;;;;10499692;28;20421;-68
2023/09/21 05:23:07;;;;;;;6.15;2.80;;;19.90;94.10;;;;;;10486514;28;20414;-69
2023/09/21 05:28:08;;;;;;;4.07;3.13;;;19.90;94.10;;;;;;10488775;28;20405;-67
2023/09/21 05:33:09;;;;;;;3.90;2.90;;;19.90;94.20;;;;;;10505448;28;20844;-67
2023/09/21 05:38:09;;;;;;;3.60;2.77;;;19.90;94.20;;;;;;10496856;28;20399;-67
2023/09/21 05:43:10;;;;;;;3.53;2.83;;;19.90;94.20;;;;;;10502985;28;20576;-68
2023/09/21 05:48:15;;;;;;;3.93;2.90;;;19.90;94.20;;;;;;10496256;28;20403;-67
2023/09/21 05:53:16;;;;;;;4.30;2.80;;;19.90;94.20;;;;;;10488527;28;20404;-66
2023/09/21 05:58:16;;;;;;;4.70;2.92;;;19.90;94.20;;;;;;10499722;28;20414;-67
2023/09/21 06:03:17;;;;;;;4.17;2.80;;;20.00;94.20;;;;;;10485040;28;20399;-66
2023/09/21 06:08:19;;;;;;;4.13;3.30;;;19.90;94.20;;;;;;10488252;28;20433;-67
2023/09/21 06:13:20;;;;;;;4.20;3.20;;;19.90;94.10;;;;;;10493370;28;20403;-67
2023/09/21 06:18:22;;;;;;;4.00;3.07;;;19.90;94.20;;;;;;10492417;28;20395;-68
2023/09/21 06:23:23;;;;;;;4.43;2.85;;;20.00;94.20;;;;;;10493070;28;20406;-66
2023/09/21 06:28:24;;;;;;;4.05;3.10;;;19.90;94.10;;;;;;10482692;28;20608;-67
2023/09/21 06:33:26;;;;;;;5.25;2.97;;;19.90;94.20;;;;;;10484823;28;20411;-66
2023/09/21 06:38:27;;;;;;;3.65;2.90;;;19.90;94.20;;;;;;10490927;28;20400;-66
2023/09/21 06:43:30;;;;;;;4.05;3.00;;;19.90;94.30;;;;;;10491971;28;20788;-67
2023/09/21 06:48:31;;;;;;;3.60;3.10;;;19.90;94.30;;;;;;10483917;28;20505;-67
2023/09/21 06:53:32;;;;;;;4.83;3.10;;;19.90;94.30;;;;;;10487760;28;20405;-67
2023/09/21 06:58:35;;;;;;;4.80;3.15;;;19.90;94.20;;;;;;10487282;28;20446;-67
2023/09/21 07:03:36;;;;;;;4.43;3.20;;;19.90;94.30;;;;;;10482956;28;20410;-67
2023/09/21 07:08:36;;;;;;;4.53;3.40;;;19.90;94.30;;;;;;10502758;28;20948;-67
2023/09/21 07:13:37;;;;;;;4.67;3.30;;;19.90;94.40;;;;;;10486827;28;20411;-67
2023/09/21 07:18:39;;;;;;;5.57;3.50;;;20.00;94.30;;;;;;10503187;28;20422;-66
2023/09/21 07:23:40;;;;;;;4.78;3.42;;;20.00;94.30;;;;;;10492093;28;20508;-66
2023/09/21 07:28:41;;;;;;;4.57;3.22;;;20.00;94.30;;;;;;10491116;28;20401;-67
2023/09/21 07:33:41;;;;;;;4.32;3.55;;;19.90;94.30;;;;;;10489576;28;20399;-66
2023/09/21 07:38:42;;;;;;;4.50;3.38;;;20.00;94.40;;;;;;10490592;28;20415;-67
2023/09/21 07:43:42;;;;;;;3.80;3.25;;;20.00;94.40;;;;;;10490282;28;20403;-66
2023/09/21 07:48:43;;;;;;;4.55;3.40;;;20.00;94.40;;;;;;10491538;28;20910;-67
2023/09/21 07:53:44;;;;;;;3.83;3.38;;;20.00;94.40;;;;;;10496774;28;20402;-67
2023/09/21 07:58:44;;;;;;;4.22;3.08;;;20.00;94.40;;;;;;10490834;28;20452;-67
2023/09/21 08:03:46;;;;;;;4.47;3.15;;;20.00;94.40;;;;;;10493937;28;20574;-66
2023/09/21 08:08:47;;;;;;;4.55;3.15;;;20.00;94.50;;;;;;10490901;28;20786;-66
2023/09/21 08:13:48;;;;;;;3.97;3.00;;;20.00;94.50;;;;;;10494594;28;20952;-66
2023/09/21 08:18:49;;;;;;;3.35;2.90;;;20.00;94.60;;;;;;10493063;28;20592;-65
2023/09/21 08:23:50;;;;;;;3.80;3.30;;;20.00;94.60;;;;;;10488893;28;20410;-67
2023/09/21 08:28:52;;;;;;;4.43;3.07;;;20.00;94.60;;;;;;10487242;28;20399;-66
2023/09/21 08:33:53;;;;;;;4.10;3.00;;;19.90;94.70;;;;;;10500250;28;20453;-66
2023/09/21 08:38:54;;;;;;;4.53;2.97;;;19.90;94.70;;;;;;10497974;28;20917;-65
2023/09/21 08:43:56;;;;;;;3.43;2.90;;;19.90;94.70;;;;;;10513860;28;20420;-67
2023/09/21 08:49:00;;;;;;;4.00;2.90;;;19.90;94.80;;;;;;10498167;28;20779;-67
2023/09/21 08:54:02;;;;;;;3.63;3.10;;;19.90;94.80;;;;;;10507985;28;20973;-65
2023/09/21 08:59:04;;;;;;;3.83;2.60;;;19.90;94.90;;;;;;10499394;28;20412;-65
2023/09/21 09:04:05;;;;;;;3.53;3.00;;;19.90;94.80;;;;;;10507559;28;20405;-66
2023/09/21 09:09:07;;;;;;;3.97;2.80;;;19.90;94.90;;;;;;10508151;28;20394;-67
2023/09/21 09:14:18;;;;;;;3.97;2.75;;;20.00;95.00;;;;;;10499160;28;20527;-66
2023/09/21 09:19:19;;;;;;;5.23;2.87;;;19.90;95.00;;;;;;10510880;28;20427;-66
2023/09/21 09:24:20;;;;;;;3.97;2.80;;;19.90;95.00;;;;;;10502458;28;20515;-66
2023/09/21 09:29:22;;;;;;;4.20;2.80;;;19.90;95.00;;;;;;10487918;28;20394;-66
2023/09/21 09:34:22;;;;;;;3.27;2.57;;;19.90;95.10;;;;;;10499291;28;20899;-67
2023/09/21 09:39:23;;;;;;;4.03;2.70;;;19.90;95.10;;;;;;10493101;28;20493;-66
2023/09/21 09:44:31;;;;;;;2.92;2.45;;;19.90;95.10;;;;;;10500535;28;20428;-66
2023/09/21 09:49:37;;;;;;;3.30;2.53;;;19.90;95.10;;;;;;10495212;28;20391;-66
2023/09/21 09:54:39;;;;;;;3.33;2.70;;;19.90;95.10;;;;;;10498019;28;20414;-65
2023/09/21 09:59:41;;;;;;;3.20;2.40;;;19.90;95.10;;;;;;10487472;28;20402;-64
2023/09/21 10:04:43;;;;;;;3.55;2.38;;;19.90;95.20;;;;;;10494247;28;20407;-66
2023/09/21 10:09:47;;;;;;;3.17;2.35;;;19.90;95.20;;;;;;10496029;28;20397;-67
2023/09/21 10:14:49;;;;;;;3.70;2.50;;;19.80;95.20;;;;;;10491028;28;20406;-65
2023/09/21 10:19:49;;;;;;;2.50;2.20;;;19.80;95.20;;;;;;10489286;28;20478;-67
2023/09/21 10:24:53;;;;;;;3.58;2.30;;;19.90;95.20;;;;;;10488009;28;20399;-66
2023/09/21 10:30:07;;;;;;;2.55;2.10;;;19.80;95.20;;;;;;10484679;28;20836;-65
2023/09/21 10:35:11;;;;;;;2.85;2.10;;;19.90;95.20;;;;;;10490425;28;20406;-66
2023/09/21 10:40:24;;;;;;;3.75;2.28;;;19.90;95.20;;;;;;10492085;28;20402;-66
2023/09/21 10:45:26;;;;;;;2.15;1.70;;;19.90;95.20;;;;;;10494604;28;20923;-66
2023/09/21 10:50:27;;;;;;;2.45;1.90;;;19.90;95.20;;;;;;10496730;28;20425;-67
2023/09/21 10:55:28;;;;;;;2.80;1.85;;;19.80;95.20;;;;;;10500930;28;20401;-65
2023/09/21 11:00:29;;;;;;;2.37;1.77;;;19.80;95.20;;;;;;10496952;28;20744;-66
2023/09/21 11:05:29;;;;;;;2.30;1.90;;;19.90;95.20;;;;;;10499557;28;20691;-65
2023/09/21 11:10:31;;;;;;;2.28;1.88;;;19.90;95.20;;;;;;10500359;28;20477;-66
2023/09/21 11:15:33;;;;;;;2.75;1.70;;;19.80;95.20;;;;;;10490803;28;20884;-66
2023/09/21 11:20:33;;;;;;;3.10;1.80;;;19.80;95.20;;;;;;10497947;28;20458;-66
2023/09/21 11:25:34;;;;;;;2.70;1.70;;;19.80;95.20;;;;;;10483748;28;20418;-66
2023/09/21 11:30:35;;;;;;;2.20;1.63;;;19.80;95.20;;;;;;10487817;28;20405;-66
2023/09/21 11:35:36;;;;;;;2.55;1.75;;;19.80;95.20;;;;;;10495918;28;20894;-66
2023/09/21 11:40:37;;;;;;;2.10;1.65;;;19.80;95.20;;;;;;10494748;28;20460;-66
2023/09/21 11:45:37;;;;;;;2.90;1.80;;;19.70;95.40;;;;;;10494000;28;21013;-66
2023/09/21 11:50:39;;;;;;;3.60;1.90;;;19.80;95.40;;;;;;10491723;28;20391;-66
2023/09/21 11:55:40;;;;;;;1.73;1.50;;;19.80;95.40;;;;;;10490274;28;20461;-66
2023/09/21 12:00:49;;;;;;;2.30;1.60;;;19.80;95.30;;;;;;10495238;28;20761;-66
2023/09/21 12:05:51;;;;;;;1.75;1.52;;;19.80;95.30;;;;;;10495580;28;20396;-66
2023/09/21 12:10:52;;;;;;;1.80;1.50;;;19.80;95.30;;;;;;10508956;28;20439;-66
2023/09/21 12:15:55;;;;;;;2.05;1.60;;;19.80;95.30;;;;;;10503443;28;20475;-66
2023/09/21 12:21:00;;;;;;;1.90;1.50;;;19.80;95.30;;;;;;10506126;28;20405;-66
2023/09/21 12:26:01;;;;;;;1.67;1.50;;;19.80;95.30;;;;;;10503816;28;20410;-65
2023/09/21 12:31:01;;;;;;;1.85;1.40;;;19.80;95.30;;;;;;10507189;28;20387;-66
2023/09/21 12:36:04;;;;;;;1.60;1.30;;;19.80;95.30;;;;;;10507925;28;20903;-66
2023/09/21 12:41:05;;;;;;;2.20;1.50;;;19.80;95.20;;;;;;10513089;28;20902;-67
2023/09/21 12:46:08;;;;;;;1.90;1.50;;;19.80;95.20;;;;;;10507411;28;20769;-66
2023/09/21 12:51:09;;;;;;;2.10;1.40;;;19.80;95.30;;;;;;10502354;28;20907;-66
2023/09/21 12:56:11;;;;;;;1.70;1.48;;;19.70;95.30;;;;;;10503848;28;20480;-66
2023/09/21 13:01:12;;;;;;;2.35;1.60;;;19.70;95.30;;;;;;10504637;28;20411;-67
2023/09/21 13:06:13;;;;;;;2.30;1.50;;;19.70;95.30;;;;;;10510723;28;20428;-66
2023/09/21 13:11:14;;;;;;;2.60;1.40;;;19.70;95.30;;;;;;10505684;28;20391;-66
2023/09/21 13:16:15;;;;;;;2.53;1.40;;;19.70;95.30;;;;;;10511417;28;20417;-66
2023/09/21 13:21:16;;;;;;;2.63;1.27;;;19.70;95.30;;;;;;10507286;28;20399;-65
2023/09/21 13:26:16;;;;;;;2.17;1.30;;;19.70;95.30;;;;;;10501157;28;20888;-65
2023/09/21 13:31:22;;;;;;;1.30;1.20;;;19.20;95.20;;;;;;10494264;28;20393;-66
2023/09/21 13:36:24;;;;;;;2.22;1.48;;;19.70;95.30;;;;;;10501728;28;20413;-66
2023/09/21 13:41:24;;;;;;;1.93;1.20;;;19.70;95.40;;;;;;10509440;28;20435;-65
2023/09/21 13:46:25;;;;;;;2.00;1.30;;;19.70;95.30;;;;;;10509537;28;20485;-66
2023/09/21 13:51:26;;;;;;;1.90;1.20;;;19.60;95.20;;;;;;10511041;28;20443;-65
2023/09/21 13:56:26;;;;;;;2.13;1.23;;;19.70;95.20;;;;;;10490159;28;20494;-66
2023/09/21 14:01:27;;;;;;;1.88;1.30;;;19.60;95.20;;;;;;10478688;28;20456;-65
2023/09/21 14:06:30;;;;;;;1.87;1.20;;;19.60;95.20;;;;;;10488909;28;20410;-66
2023/09/21 14:11:31;;;;;;;1.80;1.23;;;19.60;95.20;;;;;;10495913;28;20962;-66
2023/09/21 14:16:31;;;;;;;1.47;1.10;;;19.60;95.20;;;;;;10492695;28;20496;-65
2023/09/21 14:21:32;;;;;;;1.83;1.20;;;19.60;95.20;;;;;;10485305;28;20401;-66
2023/09/21 14:26:32;;;;;;;1.17;1.03;;;19.60;95.20;;;;;;10490198;28;20398;-65
2023/09/21 14:31:33;;;;;;;1.73;1.10;;;19.60;95.20;;;;;;10481259;28;20398;-65
2023/09/21 14:36:34;;;;;;;1.73;1.20;;;19.60;95.20;;;;;;10492210;28;20406;-66
2023/09/21 14:41:34;;;;;;;1.73;1.30;;;19.60;95.20;;;;;;10483927;28;20930;-64
2023/09/21 14:46:35;;;;;;;1.27;1.10;;;19.60;95.20;;;;;;10485765;28;20402;-67
2023/09/21 14:51:36;;;;;;;1.40;1.15;;;19.60;95.40;;;;;;10491133;28;20400;-67
2023/09/21 14:56:37;;;;;;;2.40;1.17;;;19.60;95.80;;;;;;10479592;28;20579;-67
2023/09/21 15:01:37;;;;;;;1.67;1.30;;;19.60;95.90;;;;;;10485256;28;20893;-66
2023/09/21 15:06:38;;;;;;;1.63;1.03;;;19.80;96.00;;;;;;10487203;28;20416;-66
2023/09/21 15:11:39;;;;;;;1.20;1.10;;;19.60;96.10;;;;;;10489292;28;20403;-66
2023/09/21 15:16:40;;;;;;;1.47;1.30;;;19.60;96.40;;;;;;10489612;28;20409;-65
2023/09/21 15:21:41;;;;;;;5.00;1.40;;;19.60;96.50;;;;;;10487219;28;20468;-68
2023/09/21 15:26:42;;;;;;;2.60;1.25;;;19.50;96.70;;;;;;10491080;28;20583;-66
2023/09/21 15:31:43;;;;;;;2.80;1.30;;;19.50;96.90;;;;;;10487260;28;20865;-67
2023/09/21 15:36:43;;;;;;;2.70;1.50;;;19.50;96.90;;;;;;10492362;28;21050;-66
2023/09/21 15:41:44;;;;;;;3.63;1.53;;;19.60;97.00;;;;;;10490236;28;20398;-66
2023/09/21 15:46:45;;;;;;;4.07;1.60;;;19.50;96.90;;;;;;10495351;28;20405;-66
2023/09/21 15:51:48;;;;;;;3.15;1.45;;;19.50;97.00;;;;;;10493930;28;21062;-66
2023/09/21 15:56:48;;;;;;;2.72;1.60;;;19.70;97.10;;;;;;10491148;28;20452;-66
2023/09/21 16:01:49;;;;;;;2.72;1.40;;;19.50;97.10;;;;;;10497646;28;20495;-65
2023/09/21 16:06:50;;;;;;;2.53;1.20;;;19.50;97.20;;;;;;10493539;28;20432;-67
2023/09/21 16:11:51;;;;;;;2.77;1.43;;;19.50;97.10;;;;;;10499063;28;20391;-65
2023/09/21 16:16:52;;;;;;;3.30;1.30;;;19.50;97.20;;;;;;10496867;28;20410;-65
2023/09/21 16:21:54;;;;;;;1.70;1.23;;;19.50;97.10;;;;;;10495387;28;20448;-66
2023/09/21 16:26:58;;;;;;;2.20;1.30;;;19.50;97.10;;;;;;10504629;28;20410;-67
2023/09/21 16:31:59;;;;;;;3.08;1.20;;;19.40;97.60;;;;;;10488985;28;20403;-67
2023/09/21 16:36:59;;;;;;;3.80;1.30;;;19.40;97.50;;;;;;10504232;28;20406;-66
2023/09/21 16:42:01;;;;;;;1.87;1.20;;;19.40;97.50;;;;;;10502209;28;20474;-67
2023/09/21 16:47:02;;;;;;;5.70;1.60;;;19.40;97.70;;;;;;10496003;28;20413;-65
2023/09/21 16:52:03;;;;;;;3.75;1.58;;;19.50;97.70;;;;;;10493324;28;20431;-65
2023/09/21 16:57:04;;;;;;;3.50;1.50;;;19.40;97.60;;;;;;10503708;28;20919;-65
2023/09/21 17:02:04;;;;;;;1.83;1.13;;;19.40;97.50;;;;;;10485347;28;20957;-66
2023/09/21 17:07:06;;;;;;;2.40;1.37;;;19.40;97.40;;;;;;10489441;28;20766;-64
2023/09/21 17:12:07;;;;;;;2.08;1.20;;;19.40;97.40;;;;;;10487543;28;20397;-66
2023/09/21 17:17:07;;;;;;;3.20;1.30;;;19.40;97.30;;;;;;10496666;28;20932;-65
2023/09/21 17:22:19;;;;;;;2.00;1.30;;;19.40;97.30;;;;;;10495586;28;20394;-65
2023/09/21 17:27:20;;;;;;;3.13;1.50;;;19.40;97.30;;;;;;10502729;28;20413;-66
2023/09/21 17:32:21;;;;;;;2.80;1.30;;;19.30;97.20;;;;;;10491162;28;20390;-65
2023/09/21 17:37:22;;;;;;;2.00;1.20;;;19.40;97.20;;;;;;10437730;28;1794911;-66
2023/09/21 17:42:24;;;;;;;2.17;1.10;;;19.30;97.20;;;;;;10507318;28;20487;-65
2023/09/21 17:47:25;;;;;;;2.50;1.30;;;19.30;97.10;;;;;;10496650;28;20408;-66
2023/09/21 17:52:25;;;;;;;2.07;1.27;;;19.30;97.20;;;;;;10491386;28;20878;-65
2023/09/21 17:57:26;;;;;;;1.50;1.20;;;19.30;97.20;;;;;;10499960;28;20468;-66
2023/09/21 18:02:27;;;;;;;1.88;1.30;;;19.30;97.10;;;;;;10475180;28;20930;-63
2023/09/21 18:07:27;;;;;;;2.30;1.30;;;19.30;97.20;;;;;;10486087;28;20433;-65
2023/09/21 18:12:28;;;;;;;2.20;1.10;;;19.30;97.10;;;;;;10485845;28;20575;-65
2023/09/21 18:17:28;;;;;;;2.00;1.17;;;19.30;97.20;;;;;;10492015;28;20536;-66
2023/09/21 18:22:33;;;;;;;1.47;0.90;;;19.30;97.20;;;;;;10487345;28;20469;-65
2023/09/21 18:27:34;;;;;;;1.90;1.15;;;19.30;97.10;;;;;;10483931;28;20492;-65
2023/09/21 18:32:35;;;;;;;2.13;1.35;;;19.20;97.10;;;;;;10483317;28;20840;-64
2023/09/21 18:37:38;;;;;;;2.55;1.38;;;19.30;97.10;;;;;;10493153;28;20497;-65
2023/09/21 18:42:39;;;;;;;1.60;1.10;;;19.30;97.20;;;;;;10503439;28;20392;-65
2023/09/21 18:47:40;;;;;;;1.58;1.20;;;19.20;97.10;;;;;;10492295;28;20404;-64
2023/09/21 18:52:40;;;;;;;2.15;1.02;;;19.20;97.10;;;;;;10497515;28;20400;-65
2023/09/21 18:57:46;;;;;;;1.88;1.10;;;19.30;97.20;;;;;;10488967;28;20950;-65
2023/09/21 19:02:47;;;;;;;2.27;1.40;;;19.20;97.20;;;;;;10496570;28;20498;-64
2023/09/21 19:07:48;;;;;;;2.10;1.10;;;19.20;97.20;;;;;;10493310;28;20442;-64
2023/09/21 19:12:49;;;;;;;1.97;1.10;;;19.20;97.20;;;;;;10480092;28;20506;-65
2023/09/21 19:17:51;;;;;;;1.05;0.93;;;19.20;97.10;;;;;;10495694;28;20387;-64
2023/09/21 19:22:52;;;;;;;2.47;1.13;;;19.20;97.10;;;;;;10492447;28;20412;-65
2023/09/21 19:27:53;;;;;;;2.10;1.10;;;18.20;96.90;;;;;;10494439;28;20469;-65
2023/09/21 19:32:55;;;;;;;1.60;1.15;;;19.20;97.20;;;;;;10487550;28;20411;-65
2023/09/21 19:37:56;;;;;;;1.52;1.20;;;19.10;97.20;;;;;;10495491;28;20482;-70
2023/09/21 19:42:57;;;;;;;2.27;1.17;;;19.10;97.20;;;;;;10496561;28;20921;-66
2023/09/21 19:47:59;;;;;;;1.60;1.00;;;19.20;97.20;;;;;;10493992;28;20490;-64
2023/09/21 19:53:07;;;;;;;1.67;1.20;;;19.10;97.20;;;;;;10480940;28;20893;-65
2023/09/21 19:58:08;;;;;;;2.23;1.27;;;19.10;97.20;;;;;;10482155;28;20479;-65
2023/09/21 20:03:15;;;;;;;2.13;1.20;;;19.10;97.30;;;;;;10480597;28;20431;-65
2023/09/21 20:08:16;;;;;;;1.80;1.20;;;19.10;97.30;;;;;;10482131;28;20403;-65
2023/09/21 20:13:16;;;;;;;1.70;1.20;;;19.10;97.30;;;;;;10488952;28;20390;-66
2023/09/21 20:18:17;;;;;;;1.33;1.20;;;18.70;97.20;;;;;;10485285;28;20714;-64
2023/09/21 20:23:18;;;;;;;1.75;1.30;;;19.10;97.30;;;;;;10489772;28;20411;-65
2023/09/21 20:28:18;;;;;;;1.95;1.50;;;19.10;97.40;;;;;;10486179;28;20590;-63
2023/09/21 20:33:20;;;;;;;3.50;1.38;;;19.10;97.40;;;;;;10491369;28;20416;-64
2023/09/21 20:38:21;;;;;;;1.80;1.40;;;19.10;97.30;;;;;;10491661;28;20995;-64
2023/09/21 20:43:22;;;;;;;2.40;1.40;;;19.10;97.30;;;;;;10498671;28;20415;-65
2023/09/21 20:48:22;;;;;;;1.73;1.33;;;19.10;97.40;;;;;;10495802;28;20538;-64
2023/09/21 20:53:23;;;;;;;2.00;1.47;;;19.10;97.40;;;;;;10498765;28;20404;-65
2023/09/21 20:58:24;;;;;;;3.00;1.50;;;19.00;97.40;;;;;;10494074;28;20399;-65
2023/09/21 21:03:34;;;;;;;1.80;1.40;;;19.10;97.50;;;;;;10489046;28;20410;-65
2023/09/21 21:08:34;;;;;;;2.63;1.70;;;19.00;97.40;;;;;;10495652;28;20402;-64
2023/09/21 21:13:35;;;;;;;1.90;1.48;;;19.00;97.50;;;;;;10488833;28;20421;-65
2023/09/21 21:18:36;;;;;;;2.55;1.65;;;19.00;97.50;;;;;;10494952;28;20668;-64
2023/09/21 21:23:36;;;;;;;2.03;1.50;;;19.00;97.40;;;;;;10489238;28;20401;-65
2023/09/21 21:28:37;;;;;;;2.40;1.40;;;19.00;97.30;;;;;;10488566;28;20428;-65
2023/09/21 21:33:37;;;;;;;2.13;1.67;;;19.00;97.40;;;;;;10493930;28;20413;-65
2023/09/21 21:38:38;;;;;;;2.40;1.77;;;19.00;97.50;;;;;;10492484;28;20468;-65
2023/09/21 21:43:39;;;;;;;1.83;1.53;;;19.00;97.40;;;;;;10486416;28;20785;-65
2023/09/21 21:48:40;;;;;;;2.70;2.10;;;18.90;97.40;;;;;;10492308;28;20395;-65
2023/09/21 21:53:40;;;;;;;2.00;1.80;;;18.90;97.40;;;;;;10505576;28;20406;-65
2023/09/21 21:58:41;;;;;;;2.10;1.60;;;19.00;97.40;;;;;;10497374;28;21007;-64
2023/09/21 22:03:42;;;;;;;2.40;2.00;;;19.00;97.40;;;;;;10500048;28;20417;-64
2023/09/21 22:08:43;;;;;;;3.00;1.80;;;18.90;97.40;;;;;;10493252;28;20392;-65
2023/09/21 22:13:44;;;;;;;1.95;1.75;;;18.90;97.40;;;;;;10497076;28;20433;-66
2023/09/21 22:18:46;;;;;;;4.13;1.90;;;18.90;97.40;;;;;;10496599;28;20394;-64
2023/09/21 22:23:47;;;;;;;2.95;2.00;;;18.90;97.40;;;;;;10502029;28;20783;-64
2023/09/21 22:28:47;;;;;;;2.33;2.03;;;18.90;97.40;;;;;;10502057;28;20435;-65
2023/09/21 22:33:49;;;;;;;3.20;2.13;;;18.90;97.40;;;;;;10494393;28;20407;-65
2023/09/21 22:38:50;;;;;;;2.73;1.90;;;19.00;97.40;;;;;;10497786;28;20674;-65
2023/09/21 22:43:51;;;;;;;2.57;2.00;;;18.90;97.40;;;;;;10504434;28;20412;-65
2023/09/21 22:48:51;;;;;;;2.73;2.20;;;18.90;97.40;;;;;;10500288;28;20779;-65
2023/09/21 22:53:52;;;;;;;3.07;2.40;;;18.90;97.40;;;;;;10503795;28;20414;-65
2023/09/21 22:58:53;;;;;;;2.30;2.00;;;18.90;97.50;;;;;;10500664;28;20736;-65
2023/09/21 23:03:54;;;;;;;2.60;2.20;;;18.90;97.50;;;;;;10502942;28;20400;-65
2023/09/21 23:08:55;;;;;;;2.80;2.30;;;18.90;97.50;;;;;;10506314;28;20460;-65
2023/09/21 23:13:56;;;;;;;2.60;2.30;;;18.90;97.50;;;;;;10503864;28;20885;-64
2023/09/21 23:18:57;;;;;;;3.05;2.55;;;18.90;97.50;;;;;;10494523;28;20529;-65
2023/09/21 23:23:57;;;;;;;3.15;2.55;;;18.80;97.50;;;;;;10495503;28;20458;-64
2023/09/21 23:28:58;;;;;;;3.75;2.70;;;18.80;97.60;;;;;;10497521;28;20399;-66
2023/09/21 23:33:59;;;;;;;2.80;2.50;;;18.80;97.70;;;;;;10490135;28;20414;-65
2023/09/21 23:39:00;;;;;;;3.53;2.63;;;18.80;97.60;;;;;;10503549;28;20696;-65
2023/09/21 23:44:00;;;;;;;3.40;2.75;;;18.80;97.60;;;;;;10503024;28;20414;-64
2023/09/21 23:49:01;;;;;;;3.10;2.80;;;18.80;98.00;;;;;;10503998;28;20777;-65
2023/09/21 23:54:02;;;;;;;3.03;2.60;;;18.80;97.70;;;;;;10500411;28;20499;-65
2023/09/21 23:59:04;;;;;;;3.55;2.90;;;18.80;97.70;;;;;;10510123;28;20390;-65
